Time;durP1;ratioP1;P1;durP2;ratioP2;P2;SDS_P1;SDS_P2;PMS_P1;PMS_P2;Temp;Humidity;BMP_temperature;BMP_pressure;BME280_temperature;BME280_humidity;BME280_pressure;Samples;Min_cycle;Max_cycle;Signal;HPM_P1;HPM_P2
2021/10/30 00:03:44;;;;;;;23.17;21.13;;;5.20;99.90;;;;;;4972948;28;20698;-94
2021/10/30 00:06:13;;;;;;;23.07;20.87;;;5.10;99.90;;;;;;4975471;28;20704;-94
2021/10/30 00:08:40;;;;;;;20.43;18.73;;;5.10;99.90;;;;;;4959028;28;20897;-94
2021/10/30 00:11:07;;;;;;;20.60;19.00;;;5.00;99.90;;;;;;4965546;28;20669;-93
2021/10/30 00:13:34;;;;;;;22.13;20.23;;;5.00;99.90;;;;;;4953753;28;20626;-94
2021/10/30 00:16:06;;;;;;;22.57;20.40;;;4.90;99.90;;;;;;4968465;28;20640;-94
2021/10/30 00:18:33;;;;;;;21.60;19.90;;;4.90;99.90;;;;;;4968248;28;20635;-93
2021/10/30 00:21:03;;;;;;;21.77;19.87;;;5.00;99.90;;;;;;4965584;28;20674;-94
2021/10/30 00:23:34;;;;;;;22.27;20.37;;;5.00;99.90;;;;;;4963788;28;20751;-94
2021/10/30 00:26:01;;;;;;;24.60;22.43;;;4.90;99.90;;;;;;4969019;28;20663;-94
2021/10/30 00:28:28;;;;;;;21.83;20.03;;;4.90;99.90;;;;;;4972383;28;20665;-93
2021/10/30 00:30:56;;;;;;;22.47;20.47;;;4.90;99.90;;;;;;4965022;28;20679;-95
2021/10/30 00:33:26;;;;;;;21.07;19.37;;;4.90;99.90;;;;;;4978842;28;20603;-93
2021/10/30 00:35:53;;;;;;;21.67;19.80;;;5.00;99.90;;;;;;4986016;28;20685;-93
2021/10/30 00:38:20;;;;;;;24.07;21.87;;;4.90;99.90;;;;;;4988031;28;20655;-93
2021/10/30 00:40:48;;;;;;;22.10;20.30;;;5.00;99.90;;;;;;4979027;28;20658;-94
2021/10/30 00:43:15;;;;;;;20.97;19.37;;;4.90;99.90;;;;;;4972757;28;20701;-93
2021/10/30 00:45:46;;;;;;;21.13;19.33;;;4.80;99.90;;;;;;4986524;28;20626;-94
2021/10/30 00:48:15;;;;;;;20.90;19.30;;;4.70;99.90;;;;;;4988989;28;20643;-94
2021/10/30 00:50:44;;;;;;;19.93;18.43;;;4.70;99.90;;;;;;4987676;28;20653;-93
2021/10/30 00:53:14;;;;;;;20.27;18.67;;;4.70;99.90;;;;;;4968723;28;21182;-94
2021/10/30 00:55:43;;;;;;;21.97;19.97;;;4.80;99.90;;;;;;4973578;28;20694;-93
2021/10/30 00:58:12;;;;;;;20.27;18.77;;;4.80;99.90;;;;;;4968172;28;20829;-93
2021/10/30 01:00:41;;;;;;;21.53;19.83;;;4.90;99.90;;;;;;4968096;28;20711;-93
2021/10/30 01:03:08;;;;;;;21.33;19.37;;;4.60;99.90;;;;;;4969386;28;20734;-93
2021/10/30 01:05:35;;;;;;;22.73;20.83;;;4.60;99.90;;;;;;4964645;28;20641;-94
2021/10/30 01:08:06;;;;;;;24.10;21.93;;;4.70;99.90;;;;;;4971381;28;20633;-94
2021/10/30 01:10:33;;;;;;;22.10;20.40;;;4.70;99.90;;;;;;4968228;28;20778;-93
2021/10/30 01:13:00;;;;;;;21.00;19.00;;;4.60;99.90;;;;;;4970810;28;20736;-93
2021/10/30 01:15:31;;;;;;;19.80;18.20;;;4.50;99.90;;;;;;4965119;28;20750;-93
2021/10/30 01:17:58;;;;;;;20.37;18.57;;;4.60;99.90;;;;;;4966351;28;20642;-93
2021/10/30 01:20:27;;;;;;;20.23;18.63;;;4.60;99.90;;;;;;4963881;28;20669;-93
2021/10/30 01:22:59;;;;;;;20.33;18.63;;;4.70;99.90;;;;;;4972911;28;20655;-95
2021/10/30 01:25:27;;;;;;;21.30;19.40;;;4.70;99.90;;;;;;4960074;28;20675;-94
2021/10/30 01:27:56;;;;;;;18.83;17.43;;;4.50;99.90;;;;;;4966748;28;20640;-93
2021/10/30 01:30:23;;;;;;;21.40;19.70;;;4.50;99.90;;;;;;4966545;28;20685;-94
2021/10/30 01:32:55;;;;;;;20.00;18.30;;;4.50;99.90;;;;;;4963461;28;20674;-93
2021/10/30 01:35:32;;;;;;;23.27;21.17;;;4.60;99.90;;;;;;4967202;28;20989;-93
2021/10/30 01:38:00;;;;;;;21.47;19.77;;;4.60;99.90;;;;;;4965275;28;21066;-93
2021/10/30 01:40:29;;;;;;;21.33;19.60;;;4.60;99.90;;;;;;4962065;28;20654;-94
2021/10/30 01:42:59;;;;;;;21.50;19.67;;;4.50;99.90;;;;;;4962296;28;20680;-93
2021/10/30 01:45:27;;;;;;;24.43;22.43;;;4.40;99.90;;;;;;4965856;28;20647;-93
2021/10/30 01:47:54;;;;;;;21.53;19.73;;;4.40;99.90;;;;;;4961190;28;20648;-93
2021/10/30 01:50:22;;;;;;;22.47;20.70;;;4.40;99.90;;;;;;4967384;28;21334;-92
2021/10/30 01:52:54;;;;;;;23.30;21.30;;;4.40;99.90;;;;;;4965390;28;21224;-93
2021/10/30 01:55:22;;;;;;;22.50;20.70;;;4.40;99.90;;;;;;4971230;28;20645;-93
2021/10/30 01:57:53;;;;;;;22.30;20.40;;;4.40;99.90;;;;;;4968726;28;20700;-92
2021/10/30 02:00:20;;;;;;;21.27;19.57;;;4.40;99.90;;;;;;4966703;28;20664;-93
2021/10/30 02:02:48;;;;;;;21.03;19.33;;;4.30;99.90;;;;;;4970862;28;21178;-93
2021/10/30 02:05:15;;;;;;;21.17;19.47;;;4.50;99.90;;;;;;4971737;28;20815;-93
2021/10/30 02:07:42;;;;;;;20.50;18.93;;;4.40;99.90;;;;;;4960101;28;20667;-94
2021/10/30 02:10:13;;;;;;;19.73;18.00;;;4.30;99.90;;;;;;4969895;28;21279;-94
2021/10/30 02:12:40;;;;;;;20.50;18.70;;;4.30;99.90;;;;;;4972299;28;20632;-92
2021/10/30 02:15:08;;;;;;;21.00;19.30;;;4.30;99.90;;;;;;4968854;28;20672;-92
2021/10/30 02:17:35;;;;;;;21.03;19.43;;;4.30;99.90;;;;;;4973430;28;20644;-92
2021/10/30 02:20:03;;;;;;;20.20;18.63;;;4.30;99.90;;;;;;4970347;28;20668;-93
2021/10/30 02:22:34;;;;;;;19.20;17.70;;;4.30;99.90;;;;;;4964927;28;20668;-94
2021/10/30 02:25:01;;;;;;;19.27;17.87;;;4.20;99.90;;;;;;4966270;28;20644;-94
2021/10/30 02:27:30;;;;;;;19.00;17.50;;;4.10;99.90;;;;;;4967912;28;20649;-93
2021/10/30 02:29:57;;;;;;;19.73;18.00;;;4.30;99.90;;;;;;4969227;28;20776;-94
2021/10/30 02:32:24;;;;;;;19.43;17.93;;;4.30;99.90;;;;;;4969600;28;20709;-94
2021/10/30 02:34:51;;;;;;;20.20;18.60;;;4.20;99.90;;;;;;4971046;28;20729;-93
2021/10/30 02:37:20;;;;;;;20.80;19.10;;;4.20;99.90;;;;;;4963148;28;20727;-92
2021/10/30 02:39:47;;;;;;;19.70;18.20;;;4.20;99.90;;;;;;4968228;28;20685;-94
2021/10/30 02:42:15;;;;;;;18.77;17.33;;;4.20;99.90;;;;;;4969568;28;21182;-93
2021/10/30 02:44:43;;;;;;;17.93;16.47;;;4.20;99.90;;;;;;4965930;28;20649;-93
2021/10/30 02:47:11;;;;;;;17.60;16.20;;;4.10;99.90;;;;;;4966394;28;21235;-93
2021/10/30 02:49:39;;;;;;;20.87;18.97;;;4.10;99.90;;;;;;4967816;28;20684;-93
2021/10/30 02:52:07;;;;;;;20.30;18.70;;;4.20;99.90;;;;;;4969936;28;21195;-93
2021/10/30 02:54:35;;;;;;;20.33;18.73;;;4.30;99.90;;;;;;4966903;28;20731;-94
2021/10/30 02:57:02;;;;;;;21.10;19.30;;;4.40;99.90;;;;;;4968800;28;20993;-93
2021/10/30 02:59:29;;;;;;;20.80;19.10;;;4.30;99.90;;;;;;4963338;28;20666;-94
2021/10/30 03:01:57;;;;;;;20.87;19.10;;;4.30;99.90;;;;;;4971099;28;20678;-93
2021/10/30 03:04:24;;;;;;;20.70;19.00;;;4.30;99.90;;;;;;4990983;28;21145;-94
2021/10/30 03:06:57;;;;;;;17.70;16.33;;;4.20;99.90;;;;;;4991461;28;20630;-94
2021/10/30 03:09:24;;;;;;;18.17;16.73;;;4.30;99.90;;;;;;4990247;28;20650;-93
2021/10/30 03:11:55;;;;;;;18.93;17.53;;;4.20;99.90;;;;;;4974871;28;20752;-94
2021/10/30 03:14:22;;;;;;;19.97;18.27;;;4.10;99.90;;;;;;4965454;28;21215;-93
2021/10/30 03:16:49;;;;;;;20.03;18.50;;;4.10;99.90;;;;;;4973518;28;20637;-93
2021/10/30 03:19:18;;;;;;;21.50;19.90;;;4.10;99.90;;;;;;4973834;28;20716;-93
2021/10/30 03:21:46;;;;;;;19.13;17.53;;;4.00;99.90;;;;;;4997472;28;20634;-94
2021/10/30 03:24:13;;;;;;;18.67;17.27;;;4.00;99.90;;;;;;4991639;28;20633;-92
2021/10/30 03:26:41;;;;;;;19.37;17.93;;;3.90;99.90;;;;;;4993138;28;20721;-94
2021/10/30 03:29:08;;;;;;;19.90;18.30;;;4.00;99.90;;;;;;4976399;28;20723;-94
2021/10/30 03:31:35;;;;;;;20.37;18.57;;;4.10;99.90;;;;;;4974271;28;21254;-93
2021/10/30 03:34:02;;;;;;;19.83;18.17;;;4.10;99.90;;;;;;4972081;28;20643;-93
2021/10/30 03:36:32;;;;;;;19.87;18.30;;;4.10;99.90;;;;;;4970743;28;20672;-94
2021/10/30 03:39:01;;;;;;;20.10;18.50;;;4.10;99.90;;;;;;4967284;28;20649;-93
2021/10/30 03:41:28;;;;;;;19.50;17.93;;;4.00;99.90;;;;;;4969600;28;20669;-93
2021/10/30 03:43:55;;;;;;;20.57;18.80;;;4.10;99.90;;;;;;4968513;28;20631;-94
2021/10/30 03:46:27;;;;;;;20.13;18.53;;;4.20;99.90;;;;;;4969382;28;20637;-93
2021/10/30 03:48:54;;;;;;;21.40;19.40;;;4.20;99.90;;;;;;4969356;28;20791;-93
2021/10/30 03:51:22;;;;;;;21.13;19.47;;;4.30;99.90;;;;;;4969074;28;20736;-93
2021/10/30 03:53:50;;;;;;;19.80;18.20;;;4.30;99.90;;;;;;4969036;28;20644;-93
2021/10/30 03:56:21;;;;;;;20.80;19.10;;;4.30;99.90;;;;;;4968358;28;20732;-94
2021/10/30 03:58:48;;;;;;;20.83;19.23;;;4.30;99.90;;;;;;4961962;28;21260;-92
2021/10/30 04:01:15;;;;;;;20.50;18.70;;;4.30;99.90;;;;;;4967897;28;20656;-93
2021/10/30 04:03:44;;;;;;;18.77;17.23;;;4.20;99.90;;;;;;4971548;28;20656;-94
2021/10/30 04:06:11;;;;;;;19.23;17.60;;;4.10;99.90;;;;;;4971089;28;20719;-93
2021/10/30 04:08:38;;;;;;;19.10;17.57;;;4.10;99.90;;;;;;4980683;28;20700;-93
2021/10/30 04:11:07;;;;;;;19.80;18.20;;;4.10;99.90;;;;;;4976709;28;20787;-93
2021/10/30 04:13:34;;;;;;;18.03;16.63;;;4.00;99.90;;;;;;4976740;28;21064;-93
2021/10/30 04:16:01;;;;;;;18.57;16.87;;;3.90;99.90;;;;;;4976884;28;20720;-94
2021/10/30 04:18:28;;;;;;;18.47;16.97;;;4.00;99.90;;;;;;4975410;28;20893;-94
2021/10/30 04:20:55;;;;;;;19.80;18.20;;;4.00;99.90;;;;;;4981086;28;21195;-95
2021/10/30 04:23:22;;;;;;;20.40;18.80;;;4.00;99.90;;;;;;4980547;28;20716;-94
2021/10/30 04:25:49;;;;;;;20.10;18.50;;;3.90;99.90;;;;;;4977716;28;20671;-94
2021/10/30 04:28:19;;;;;;;19.27;17.60;;;3.90;99.90;;;;;;4966992;28;20742;-95
2021/10/30 04:30:46;;;;;;;20.83;19.20;;;3.90;99.90;;;;;;4970410;28;21657;-94
2021/10/30 04:33:16;;;;;;;18.33;16.93;;;3.90;99.90;;;;;;4973622;28;20640;-95
2021/10/30 04:35:43;;;;;;;20.43;18.73;;;3.80;99.90;;;;;;4959497;28;21160;-94
2021/10/30 04:38:11;;;;;;;20.70;19.00;;;3.80;99.90;;;;;;4975326;28;20629;-95
2021/10/30 04:40:38;;;;;;;20.00;18.40;;;3.80;99.90;;;;;;4971565;28;20669;-94
2021/10/30 04:43:05;;;;;;;17.57;16.27;;;3.80;99.90;;;;;;4977593;28;20667;-94
2021/10/30 04:45:37;;;;;;;18.80;17.30;;;3.80;99.90;;;;;;4979417;28;20648;-96
2021/10/30 04:48:09;;;;;;;20.50;18.80;;;3.70;99.90;;;;;;4991629;28;20639;-95
2021/10/30 04:50:37;;;;;;;20.83;19.10;;;3.90;99.90;;;;;;4990184;28;20687;-94
2021/10/30 04:53:04;;;;;;;22.03;20.13;;;3.90;99.90;;;;;;4986296;28;20645;-95
2021/10/30 04:55:32;;;;;;;21.30;19.50;;;3.90;99.90;;;;;;4993363;28;20636;-95
2021/10/30 04:57:59;;;;;;;18.37;16.87;;;3.90;99.90;;;;;;4974697;28;20624;-95
2021/10/30 05:00:26;;;;;;;18.50;17.00;;;3.80;99.90;;;;;;4980641;28;20657;-95
2021/10/30 05:02:59;;;;;;;18.77;17.30;;;3.80;99.90;;;;;;4974354;28;20644;-95
2021/10/30 05:05:26;;;;;;;20.50;18.60;;;3.80;99.90;;;;;;4951997;28;20742;-95
2021/10/30 05:07:54;;;;;;;18.60;17.17;;;3.80;99.90;;;;;;4972082;28;20647;-94
2021/10/30 05:10:21;;;;;;;17.60;16.10;;;3.80;99.90;;;;;;4969547;28;20777;-95
2021/10/30 05:12:48;;;;;;;19.93;18.43;;;3.70;99.90;;;;;;4967006;28;20762;-94
2021/10/30 05:15:15;;;;;;;19.30;17.70;;;3.70;99.90;;;;;;4964929;28;20756;-94
2021/10/30 05:17:42;;;;;;;21.40;19.70;;;3.60;99.90;;;;;;4975234;28;20639;-94
2021/10/30 05:20:12;;;;;;;21.27;19.63;;;3.60;99.90;;;;;;4972666;28;20657;-94
2021/10/30 05:22:45;;;;;;;21.00;19.20;;;3.60;99.90;;;;;;4969201;28;20733;-94
2021/10/30 05:25:26;;;;;;;17.93;16.63;;;3.50;99.90;;;;;;4971747;28;20724;-95
2021/10/30 05:27:53;;;;;;;18.10;16.70;;;3.60;99.90;;;;;;4968814;28;20636;-94
2021/10/30 05:30:21;;;;;;;17.83;16.43;;;3.60;99.90;;;;;;4973843;28;21064;-94
2021/10/30 05:32:48;;;;;;;18.37;16.93;;;3.60;99.90;;;;;;4969777;28;20703;-93
2021/10/30 05:35:17;;;;;;;17.77;16.37;;;3.80;99.90;;;;;;4970428;28;21245;-93
2021/10/30 05:37:46;;;;;;;17.40;15.87;;;3.80;99.90;;;;;;4974887;28;20646;-93
2021/10/30 05:40:13;;;;;;;17.83;16.40;;;3.70;99.90;;;;;;4970647;28;20664;-93
2021/10/30 05:42:44;;;;;;;18.13;16.73;;;3.70;99.90;;;;;;4970140;28;20708;-94
2021/10/30 05:45:13;;;;;;;17.13;15.73;;;3.70;99.90;;;;;;4971046;28;20643;-93
2021/10/30 05:47:41;;;;;;;17.90;16.40;;;3.70;99.90;;;;;;4974708;28;20645;-93
2021/10/30 05:50:10;;;;;;;17.07;15.70;;;3.60;99.90;;;;;;4971703;28;20791;-94
2021/10/30 05:52:39;;;;;;;16.83;15.50;;;3.60;99.90;;;;;;4971981;28;20640;-93
2021/10/30 05:55:09;;;;;;;17.03;15.73;;;3.60;99.90;;;;;;4969058;28;20641;-95
2021/10/30 05:57:36;;;;;;;17.67;16.20;;;3.50;99.90;;;;;;4969798;28;21221;-93
2021/10/30 06:00:05;;;;;;;16.93;15.63;;;3.50;99.90;;;;;;4977754;28;20673;-93
2021/10/30 06:02:33;;;;;;;17.10;15.70;;;3.50;99.90;;;;;;4976435;28;21213;-95
2021/10/30 06:05:00;;;;;;;15.80;14.40;;;3.40;99.90;;;;;;4969371;28;20635;-93
2021/10/30 06:07:27;;;;;;;19.43;17.83;;;3.40;99.90;;;;;;4969326;28;20660;-93
2021/10/30 06:09:56;;;;;;;33.10;30.30;;;3.40;99.90;;;;;;4984087;28;21049;-94
2021/10/30 06:12:23;;;;;;;35.53;32.60;;;3.50;99.90;;;;;;4973709;28;20639;-94
2021/10/30 06:14:55;;;;;;;30.33;27.80;;;3.50;99.90;;;;;;4969948;28;20726;-93
2021/10/30 06:17:22;;;;;;;17.87;16.33;;;3.60;99.90;;;;;;4973531;28;20639;-94
2021/10/30 06:19:50;;;;;;;20.00;18.40;;;3.50;99.90;;;;;;4972534;28;20664;-93
2021/10/30 06:22:18;;;;;;;19.10;17.40;;;3.50;99.90;;;;;;4976129;28;20650;-94
2021/10/30 06:24:50;;;;;;;16.53;15.23;;;3.60;99.90;;;;;;4987695;28;20658;-92
2021/10/30 06:27:19;;;;;;;15.90;14.50;;;3.60;99.90;;;;;;4974500;28;20756;-94
2021/10/30 06:29:47;;;;;;;17.40;16.07;;;3.60;99.90;;;;;;4970734;28;20697;-94
2021/10/30 06:32:15;;;;;;;17.00;15.80;;;3.70;99.90;;;;;;4974575;28;20781;-94
2021/10/30 06:34:42;;;;;;;16.80;15.40;;;3.80;99.90;;;;;;4976732;28;20651;-94
2021/10/30 06:37:13;;;;;;;16.13;14.83;;;3.80;99.90;;;;;;4976413;28;21050;-95
2021/10/30 06:39:45;;;;;;;17.47;16.00;;;3.90;99.90;;;;;;4988915;28;20679;-94
2021/10/30 06:42:13;;;;;;;16.93;15.43;;;4.00;99.90;;;;;;4986576;28;20720;-94
2021/10/30 06:44:44;;;;;;;17.53;16.20;;;4.00;99.90;;;;;;4993604;28;20636;-94
2021/10/30 06:47:12;;;;;;;16.60;15.10;;;4.00;99.90;;;;;;4973829;28;21279;-94
2021/10/30 06:49:40;;;;;;;16.83;15.47;;;4.00;99.90;;;;;;4971623;28;20726;-94
2021/10/30 06:52:09;;;;;;;16.77;15.47;;;4.10;99.90;;;;;;4980170;28;20648;-94
2021/10/30 06:54:37;;;;;;;18.40;16.80;;;4.20;99.90;;;;;;4977330;28;21011;-95
2021/10/30 06:57:08;;;;;;;16.37;15.13;;;4.40;99.90;;;;;;4972768;28;20633;-95
2021/10/30 06:59:36;;;;;;;16.50;15.20;;;4.50;99.90;;;;;;4967214;28;20673;-95
2021/10/30 07:02:11;;;;;;;17.83;16.53;;;4.50;99.90;;;;;;4967612;28;20984;-95
2021/10/30 07:04:40;;;;;;;17.07;15.50;;;4.60;99.90;;;;;;4970393;28;20630;-94
2021/10/30 07:07:09;;;;;;;16.80;15.50;;;4.70;99.90;;;;;;4987060;28;20699;-95
2021/10/30 07:09:42;;;;;;;17.03;15.63;;;4.90;99.90;;;;;;4973396;28;21097;-95
2021/10/30 07:12:09;;;;;;;15.90;14.60;;;4.90;99.90;;;;;;4981277;28;21234;-95
2021/10/30 07:14:36;;;;;;;15.50;14.30;;;5.00;99.90;;;;;;4974055;28;20981;-96
2021/10/30 07:17:06;;;;;;;15.30;14.10;;;5.10;99.90;;;;;;4971381;28;20746;-95
2021/10/30 07:19:38;;;;;;;16.10;14.80;;;5.20;99.90;;;;;;4959433;28;20652;-96
2021/10/30 07:22:16;;;;;;;16.23;14.70;;;5.30;99.90;;;;;;4980095;28;20647;-96
2021/10/30 07:24:47;;;;;;;15.57;14.00;;;5.50;99.90;;;;;;4973198;28;20695;-95
2021/10/30 07:27:24;;;;;;;15.77;14.47;;;5.80;99.90;;;;;;4979420;28;20657;-95
2021/10/30 07:29:58;;;;;;;15.27;13.90;;;5.90;99.90;;;;;;4973552;28;20667;-94
2021/10/30 07:32:27;;;;;;;14.57;13.43;;;6.10;99.90;;;;;;4975888;28;20662;-94
2021/10/30 07:34:57;;;;;;;14.20;13.10;;;6.20;99.90;;;;;;4972520;28;21029;-95
2021/10/30 07:37:27;;;;;;;15.20;13.90;;;6.10;99.90;;;;;;4982188;28;20733;-95
2021/10/30 07:39:58;;;;;;;14.97;13.47;;;6.20;99.90;;;;;;4978360;28;20732;-95
2021/10/30 07:42:26;;;;;;;17.00;15.53;;;6.20;99.90;;;;;;4990771;28;20618;-95
2021/10/30 07:45:01;;;;;;;15.03;13.83;;;6.30;99.90;;;;;;4994689;28;20625;-95
2021/10/30 07:47:38;;;;;;;17.57;16.17;;;6.50;99.90;;;;;;4993148;28;20609;-96
2021/10/30 07:50:30;;;;;;;14.60;13.50;;;6.50;99.90;;;;;;4983673;28;20662;-96
2021/10/30 07:55:54;;;;;;;14.80;13.50;;;6.70;99.90;;;;;;4967797;28;20620;-96
2021/10/30 07:58:45;;;;;;;15.13;13.93;;;6.90;99.90;;;;;;4981667;28;20634;-96
2021/10/30 08:04:55;;;;;;;16.00;14.50;;;7.50;99.90;;;;;;4989263;28;20618;-96
2021/10/30 08:10:35;;;;;;;13.67;12.57;;;7.50;99.90;;;;;;4971923;28;20666;-96
2021/10/30 08:13:03;;;;;;;15.33;14.13;;;7.60;99.90;;;;;;4970032;28;20656;-95
2021/10/30 08:15:34;;;;;;;14.10;12.80;;;7.60;99.90;;;;;;4977286;28;20646;-95
2021/10/30 08:18:03;;;;;;;14.70;13.40;;;7.60;99.90;;;;;;4983082;28;20637;-96
2021/10/30 08:20:33;;;;;;;14.13;12.83;;;7.70;99.90;;;;;;4979089;28;20670;-96
2021/10/30 08:23:03;;;;;;;14.60;13.37;;;8.00;99.90;;;;;;4969893;28;20749;-95
2021/10/30 08:25:30;;;;;;;15.13;13.73;;;8.20;99.90;;;;;;4968057;28;20681;-96
2021/10/30 08:27:59;;;;;;;14.30;13.00;;;8.20;99.90;;;;;;4968296;28;20641;-95
2021/10/30 08:30:34;;;;;;;14.17;12.73;;;8.30;99.90;;;;;;4960479;28;20658;-95
2021/10/30 08:33:03;;;;;;;13.50;12.40;;;8.60;99.90;;;;;;4971631;28;20661;-96
2021/10/30 08:35:30;;;;;;;13.40;12.30;;;8.70;99.90;;;;;;4971103;28;20674;-96
2021/10/30 08:37:58;;;;;;;13.17;11.97;;;8.70;99.90;;;;;;4967824;28;21066;-96
2021/10/30 08:40:27;;;;;;;13.93;12.73;;;8.70;99.90;;;;;;4968075;28;20696;-96
2021/10/30 08:43:00;;;;;;;13.03;12.03;;;8.80;99.90;;;;;;4977304;28;20638;-96
2021/10/30 08:45:36;;;;;;;12.93;11.93;;;9.00;99.90;;;;;;4973676;28;20652;-96
2021/10/30 08:48:07;;;;;;;11.77;10.77;;;8.80;99.90;;;;;;4990538;28;20628;-96
2021/10/30 08:50:37;;;;;;;12.73;11.73;;;8.90;99.90;;;;;;4979623;28;20766;-96
2021/10/30 08:53:09;;;;;;;12.63;11.63;;;9.10;99.90;;;;;;4996284;28;20685;-95
2021/10/30 08:55:45;;;;;;;12.87;11.87;;;9.00;99.90;;;;;;4986198;28;20661;-96
2021/10/30 08:58:21;;;;;;;12.83;11.73;;;9.00;99.90;;;;;;4990866;28;20609;-96
2021/10/30 09:00:49;;;;;;;12.00;11.10;;;9.10;99.90;;;;;;4990787;28;20664;-96
2021/10/30 09:03:19;;;;;;;13.70;12.40;;;9.30;99.90;;;;;;4982259;28;20638;-96
2021/10/30 09:05:52;;;;;;;12.60;11.50;;;9.30;99.90;;;;;;4989139;28;20714;-96
2021/10/30 09:08:23;;;;;;;12.80;11.80;;;9.50;99.90;;;;;;4996065;28;20622;-96
2021/10/30 09:11:02;;;;;;;13.50;12.50;;;9.70;99.90;;;;;;4997416;28;20668;-95
2021/10/30 09:13:32;;;;;;;12.70;11.70;;;9.70;99.90;;;;;;4987399;28;20696;-96
2021/10/30 09:16:02;;;;;;;13.07;11.87;;;9.70;99.90;;;;;;4978327;28;20632;-96
2021/10/30 09:18:33;;;;;;;14.30;12.97;;;9.70;99.90;;;;;;4975962;28;20665;-96
2021/10/30 09:21:15;;;;;;;13.00;11.70;;;9.60;99.90;;;;;;4975543;28;20669;-96
2021/10/30 09:23:47;;;;;;;14.50;13.30;;;9.70;99.90;;;;;;4982305;28;20734;-95
2021/10/30 09:26:22;;;;;;;13.70;12.60;;;9.70;99.90;;;;;;4985286;28;20917;-96
2021/10/30 09:29:05;;;;;;;13.37;12.30;;;9.80;99.90;;;;;;4973261;28;20661;-96
2021/10/30 09:31:34;;;;;;;14.23;12.93;;;9.90;99.90;;;;;;4968212;28;20681;-96
2021/10/30 09:34:08;;;;;;;15.03;13.70;;;9.80;99.90;;;;;;4974876;28;20688;-95
2021/10/30 09:36:39;;;;;;;14.13;12.93;;;9.90;99.90;;;;;;4972615;28;20641;-95
2021/10/30 09:39:10;;;;;;;14.87;13.47;;;9.90;99.90;;;;;;4979398;28;20633;-96
2021/10/30 09:41:46;;;;;;;14.50;13.23;;;9.90;99.90;;;;;;4975638;28;21063;-96
2021/10/30 09:44:18;;;;;;;13.53;12.53;;;9.90;99.90;;;;;;4973777;28;20638;-95
2021/10/30 10:11:13;;;;;;;18.30;16.70;;;10.10;99.90;;;;;;5346552;23;21071;-95
2021/10/30 10:32:33;;;;;;;14.07;12.87;;;10.30;99.90;;;;;;5116529;23;20661;-96
2021/10/30 10:35:13;;;;;;;13.87;12.57;;;10.50;99.90;;;;;;4983967;28;20750;-95
2021/10/30 10:37:48;;;;;;;16.23;14.00;;;10.50;99.90;;;;;;4987195;28;20641;-95
2021/10/30 10:40:38;;;;;;;14.27;12.83;;;10.60;99.90;;;;;;4958133;28;20645;-95
2021/10/30 10:43:05;;;;;;;15.30;13.90;;;10.60;99.90;;;;;;4950257;28;20635;-95
2021/10/30 10:45:51;;;;;;;14.10;13.00;;;10.60;99.90;;;;;;4959096;28;20676;-95
2021/10/30 10:48:42;;;;;;;14.03;12.77;;;10.60;99.90;;;;;;4958545;28;20640;-94
2021/10/30 10:51:22;;;;;;;14.63;13.20;;;10.50;99.90;;;;;;4961812;28;20677;-95
2021/10/30 10:53:58;;;;;;;15.40;14.10;;;10.50;99.90;;;;;;4955941;28;20716;-95
2021/10/30 10:56:26;;;;;;;14.23;12.93;;;10.50;99.90;;;;;;4941014;28;20674;-96
2021/10/30 10:59:15;;;;;;;15.00;12.63;;;10.60;99.90;;;;;;4958473;28;20637;-96
2021/10/30 11:02:20;;;;;;;15.60;13.73;;;10.70;99.90;;;;;;4940615;28;20731;-94
2021/10/30 11:05:24;;;;;;;16.33;14.80;;;10.70;99.90;;;;;;4955293;28;21321;-95
2021/10/30 11:08:27;;;;;;;29.93;27.17;;;10.70;99.90;;;;;;4950683;28;20688;-95
2021/10/30 11:11:14;;;;;;;27.97;25.43;;;10.90;99.90;;;;;;4945813;28;20637;-94
2021/10/30 11:13:53;;;;;;;23.87;21.00;;;10.90;99.90;;;;;;4959457;28;20776;-93
2021/10/30 11:16:28;;;;;;;21.83;19.77;;;10.80;99.90;;;;;;4937960;29;21197;-95
2021/10/30 11:19:09;;;;;;;76.43;68.60;;;10.90;99.90;;;;;;4961056;28;20635;-94
2021/10/30 11:21:42;;;;;;;70.97;64.03;;;10.80;99.90;;;;;;4941696;28;20673;-94
2021/10/30 11:24:30;;;;;;;34.47;31.37;;;10.90;99.90;;;;;;4947144;28;20632;-94
2021/10/30 11:27:07;;;;;;;18.13;16.40;;;10.90;99.90;;;;;;4951155;28;20647;-94
2021/10/30 11:29:35;;;;;;;19.13;17.33;;;11.00;99.90;;;;;;4964592;28;20631;-94
2021/10/30 11:32:05;;;;;;;15.20;13.90;;;11.10;99.90;;;;;;4972754;28;20742;-94
2021/10/30 11:34:33;;;;;;;16.90;15.30;;;11.10;99.90;;;;;;4974473;28;20666;-94
2021/10/30 12:16:28;;;;;;;16.57;14.93;;;10.50;99.90;;;;;;4995311;28;20624;-95
2021/10/30 12:19:01;;;;;;;17.53;15.90;;;10.40;99.90;;;;;;4972085;28;20700;-94
2021/10/30 12:21:45;;;;;;;18.70;16.80;;;10.40;99.90;;;;;;4977017;28;21025;-95
2021/10/30 12:24:27;;;;;;;17.97;16.37;;;10.50;99.90;;;;;;4951153;28;20633;-95
2021/10/30 12:26:58;;;;;;;18.17;16.40;;;10.40;99.90;;;;;;4965038;28;20641;-96
2021/10/30 12:30:06;;;;;;;18.53;16.93;;;10.30;99.90;;;;;;4973896;28;20648;-96
2021/10/30 12:32:41;;;;;;;19.80;18.10;;;10.30;99.90;;;;;;4972388;28;20682;-94
2021/10/30 12:35:15;;;;;;;20.20;18.30;;;10.40;99.90;;;;;;4971802;28;20615;-96
2021/10/30 12:37:48;;;;;;;21.17;18.90;;;10.20;99.90;;;;;;4971751;28;20629;-95
2021/10/30 12:40:18;;;;;;;22.70;20.40;;;10.10;99.90;;;;;;4964851;28;21287;-95
2021/10/30 12:42:50;;;;;;;24.10;21.70;;;10.20;99.90;;;;;;4980714;28;20669;-93
2021/10/30 12:49:15;;;;;;;22.03;19.80;;;10.30;99.90;;;;;;4973154;28;20648;-96
2021/10/30 12:52:14;;;;;;;20.43;18.47;;;10.10;99.90;;;;;;4979609;28;20665;-95
2021/10/30 12:58:33;;;;;;;19.67;17.80;;;10.10;99.90;;;;;;4985254;28;20677;-96
2021/10/30 13:01:38;;;;;;;20.50;18.80;;;10.10;99.90;;;;;;4972497;28;20666;-96
2021/10/30 13:08:01;;;;;;;18.93;17.00;;;10.20;99.90;;;;;;4979062;28;20713;-96
2021/10/30 13:10:58;;;;;;;20.50;18.50;;;10.00;99.90;;;;;;4982468;28;20634;-95
2021/10/30 13:13:44;;;;;;;18.27;16.60;;;10.00;99.90;;;;;;4979190;28;20650;-95
2021/10/30 13:16:51;;;;;;;19.53;17.73;;;10.00;99.90;;;;;;4977982;28;20631;-95
2021/10/30 13:25:04;;;;;;;18.23;16.43;;;9.80;99.90;;;;;;4980696;28;20610;-95
2021/10/30 13:27:54;;;;;;;18.43;16.73;;;9.90;99.90;;;;;;4984397;28;20656;-95
2021/10/30 13:30:28;;;;;;;17.20;15.70;;;9.80;99.90;;;;;;4975307;28;20633;-94
2021/10/30 13:33:05;;;;;;;18.13;16.43;;;9.90;99.90;;;;;;4970568;28;21097;-95
2021/10/30 13:36:06;;;;;;;19.10;17.50;;;10.00;99.90;;;;;;4968523;28;20637;-96
2021/10/30 13:38:37;;;;;;;17.80;15.90;;;10.00;99.90;;;;;;4955127;28;20638;-96
2021/10/30 13:55:48;;;;;;;16.97;15.47;;;9.80;99.90;;;;;;4980928;28;20645;-96
2021/10/30 13:58:46;;;;;;;17.60;16.00;;;9.90;99.90;;;;;;4991747;28;20637;-95
2021/10/30 14:21:09;;;;;;;20.37;18.30;;;10.00;99.90;;;;;;5002574;28;20672;-95
2021/10/30 14:23:53;;;;;;;18.67;16.90;;;10.00;99.90;;;;;;4989623;28;20632;-95
2021/10/30 14:26:41;;;;;;;19.63;17.90;;;10.00;99.90;;;;;;5001868;28;20609;-96
2021/10/30 14:36:35;;;;;;;16.03;14.50;;;10.10;99.90;;;;;;4995830;28;20625;-96
2021/10/30 14:55:04;;;;;;;18.40;16.70;;;10.20;99.90;;;;;;5001661;28;20637;-96
2021/10/30 15:23:57;;;;;;;22.90;20.90;;;10.20;99.90;;;;;;5013964;28;20661;-95
2021/10/30 15:58:06;;;;;;;20.00;18.00;;;10.00;99.90;;;;;;5007849;28;20640;-96
2021/10/30 16:00:42;;;;;;;20.43;18.73;;;10.00;99.90;;;;;;5007275;28;21171;-96
2021/10/30 16:03:12;;;;;;;19.80;18.10;;;10.10;99.90;;;;;;4999831;28;21210;-96
2021/10/30 16:05:39;;;;;;;22.40;20.50;;;10.00;99.90;;;;;;5007468;28;20632;-96
2021/10/30 16:08:07;;;;;;;20.33;18.37;;;9.90;99.90;;;;;;5005123;28;20632;-96
2021/10/30 16:10:36;;;;;;;21.07;19.27;;;9.90;99.90;;;;;;4994388;28;20714;-95
2021/10/30 16:13:04;;;;;;;21.77;19.70;;;9.90;99.90;;;;;;5000738;28;21087;-95
2021/10/30 16:15:33;;;;;;;20.77;18.77;;;9.90;99.90;;;;;;5000334;28;20669;-96
2021/10/30 16:18:15;;;;;;;22.10;20.00;;;9.90;99.90;;;;;;5006913;28;20724;-95
2021/10/30 16:20:46;;;;;;;23.80;21.80;;;9.90;99.90;;;;;;5007817;28;20659;-95
2021/10/30 16:28:42;;;;;;;23.90;21.70;;;10.00;99.90;;;;;;5012939;28;20644;-95
2021/10/30 16:31:22;;;;;;;25.43;23.27;;;10.00;99.90;;;;;;5021633;28;20628;-95
2021/10/30 16:37:24;;;;;;;20.47;18.70;;;9.90;99.90;;;;;;5016662;28;20680;-95
2021/10/30 16:39:54;;;;;;;21.90;20.03;;;9.90;99.90;;;;;;4986774;28;20645;-94
2021/10/30 16:42:36;;;;;;;21.20;19.27;;;9.90;99.90;;;;;;4999871;28;20617;-96
2021/10/30 16:45:07;;;;;;;20.17;18.47;;;9.90;99.90;;;;;;5011198;28;20659;-96
2021/10/30 16:50:18;;;;;;;20.30;18.20;;;9.80;99.90;;;;;;5001228;28;20661;-94
2021/10/30 16:52:52;;;;;;;20.97;19.17;;;9.80;99.90;;;;;;4998136;28;20629;-95
2021/10/30 16:55:49;;;;;;;18.27;16.70;;;9.90;99.90;;;;;;5007202;28;20640;-94
2021/10/30 16:58:16;;;;;;;21.80;19.80;;;9.90;99.90;;;;;;5015806;28;20651;-96